LGKV

Alexander the Great International Airport

Kavala, Greece
TAF LGKV 192000Z 1921/2006 05008KT 9999 FEW018 PROB30 2000/2004 5000 BR SCT010 SCT016 PROB30 TEMPO 2004/2006 5000 RA SCT010 SCT016 BKN070
Issued Valid From Valid To
Nov-19 @ 20:00 UTC
(2 hours ago)
Nov-19 @ 21:00 UTC
(an hour ago)
Nov-20 @ 06:00 UTC
(in 8 hours)
Nov-19 @ 21:00 to Nov-20 @ 06:00
TAF LGKV 192000Z 1921/2006 05008KT 9999 FEW018
Wind Visibility Clouds
50° at 8 knots 10,000+ meters
  • Few at 1,800' AGL
Probable  (Probability 30%) Nov-20 @ 00:00 to Nov-20 @ 04:00
PROB30 2000/2004 5000 BR SCT010 SCT016
Visibility Clouds Conditions
5,005 meters
  • Scattered at 1,000' AGL
  • Scattered at 1,600' AGL
  • Mist
Temporary  (Probability 30%) Nov-20 @ 04:00 to Nov-20 @ 06:00
PROB30 TEMPO 2004/2006 5000 RA SCT010 SCT016 BKN070
Visibility Clouds Conditions
5,005 meters
  • Scattered at 1,000' AGL
  • Scattered at 1,600' AGL
  • Broken at 7,000' AGL
  • Rain
TAF LGKV 192000Z 1921/2006 05008KT 9999 FEW018 PROB30 2000/2004 5000 BR SCT010 SCT016 PROB30 TEMPO 2004/2006 5000 RA SCT010 SCT016 BKN070
Issued Nov-19 @ 20:00 UTC
(2 hours ago)
Valid From Nov-19 @ 21:00 UTC
(an hour ago)
Valid To Nov-20 @ 06:00 UTC
(in 8 hours)
Nov-19 @ 21:00 - Nov-20 @ 06:00
Wind Visibility
50° at 8 knots 10,000+ meters
Clouds
  • Few at 1,800' AGL
Probability 30% Probable Nov-20 @ 00:00 - Nov-20 @ 04:00
Clouds
  • Scattered at 1,000' AGL
  • Scattered at 1,600' AGL
Conditions
  • Mist
Probability 30% Temporary Nov-20 @ 04:00 - Nov-20 @ 06:00
Clouds
  • Scattered at 1,000' AGL
  • Scattered at 1,600' AGL
  • Broken at 7,000' AGL
Conditions
  • Rain